createdAt,value
2018-03-24T00:00:16.562Z,95.7
2018-03-24T00:01:16.580Z,95.6
2018-03-24T00:02:16.847Z,95.5
2018-03-24T00:03:17.141Z,95.5
2018-03-24T00:04:16.410Z,95.5
2018-03-24T00:05:16.680Z,95.5
2018-03-24T00:06:16.944Z,95.5
2018-03-24T00:07:17.222Z,95.5
2018-03-24T00:08:16.552Z,95.5
2018-03-24T00:09:16.821Z,95.3
2018-03-24T00:10:17.092Z,95.3
2018-03-24T00:11:17.150Z,95.3
2018-03-24T00:12:16.422Z,95.3
2018-03-24T00:13:16.683Z,95.2
2018-03-24T00:14:16.943Z,95.2
2018-03-24T00:15:17.230Z,95.2
2018-03-24T00:16:16.509Z,95.2
2018-03-24T00:17:16.773Z,95.2
2018-03-24T00:18:17.045Z,95.2
2018-03-24T00:19:16.308Z,95.3
2018-03-24T00:20:16.591Z,95.3
2018-03-24T00:21:16.640Z,95.3
2018-03-24T00:22:16.907Z,95.3
2018-03-24T00:23:17.196Z,95.3
2018-03-24T00:24:16.461Z,95.3
2018-03-24T00:25:16.727Z,95.3
2018-03-24T00:26:16.997Z,95.3
2018-03-24T00:27:16.274Z,95.3
2018-03-24T00:28:16.536Z,95.3
2018-03-24T00:29:16.846Z,95.4
2018-03-24T00:30:17.113Z,95.4
2018-03-24T00:31:17.155Z,95.4
2018-03-24T00:32:16.419Z,95.4
2018-03-24T00:33:16.678Z,95.4
2018-03-24T00:34:16.959Z,95.3
2018-03-24T00:35:17.225Z,95.3
2018-03-24T00:36:16.497Z,95.4
2018-03-24T00:37:16.762Z,95.4
2018-03-24T00:38:17.034Z,95.3
2018-03-24T00:39:16.301Z,95.3
2018-03-24T00:40:16.582Z,95.4
2018-03-24T00:41:16.612Z,95.4
2018-03-24T00:42:16.879Z,95.4
2018-03-24T00:43:17.141Z,95.4
2018-03-24T00:44:16.408Z,95.4
2018-03-24T00:45:16.685Z,95.4
2018-03-24T00:46:16.955Z,95.3
2018-03-24T00:47:17.222Z,95.3
2018-03-24T00:48:16.486Z,95.3
2018-03-24T00:49:16.753Z,95.3
2018-03-24T00:50:17.018Z,95.3
2018-03-24T00:51:17.058Z,95.3
2018-03-24T00:52:16.328Z,95.3
2018-03-24T00:53:16.601Z,95.3
2018-03-24T00:54:16.863Z,95.3
2018-03-24T00:55:17.128Z,95.3
2018-03-24T00:56:16.390Z,95.3
2018-03-24T00:57:16.656Z,95.3
2018-03-24T00:58:16.930Z,95.4
2018-03-24T00:59:17.213Z,95.3
2018-03-24T01:00:16.503Z,95.3
2018-03-24T01:01:16.530Z,95.3
2018-03-24T01:02:16.795Z,95.3
2018-03-24T01:03:17.066Z,95.4
2018-03-24T01:04:16.336Z,95.4
2018-03-24T01:05:16.615Z,95.5
2018-03-24T01:06:16.879Z,95.5
2018-03-24T01:07:17.138Z,95.3
2018-03-24T01:08:16.405Z,95.3
2018-03-24T01:09:16.673Z,95.3
2018-03-24T01:10:17.655Z,95.3
2018-03-24T01:11:16.996Z,95.3
2018-03-24T01:12:16.266Z,95.3
2018-03-24T01:13:16.532Z,95.3
2018-03-24T01:14:16.814Z,95.3
2018-03-24T01:15:17.082Z,95.3
2018-03-24T01:16:16.349Z,95.3
2018-03-24T01:17:16.616Z,95.3
2018-03-24T01:18:16.875Z,95.4
2018-03-24T01:19:17.135Z,95.4
2018-03-24T01:20:16.412Z,95.4
2018-03-24T01:21:16.450Z,95.4
2018-03-24T01:22:16.709Z,95.4
2018-03-24T01:23:16.977Z,95.3
2018-03-24T01:24:17.243Z,95.3
2018-03-24T01:25:16.500Z,95.3
2018-03-24T01:26:16.769Z,95.3
2018-03-24T01:27:17.034Z,95.4
2018-03-24T01:28:16.290Z,95.5
2018-03-24T01:29:16.559Z,95.5
2018-03-24T01:30:16.825Z,95.5
2018-03-24T01:31:16.871Z,95.5
2018-03-24T01:32:17.144Z,95.5
2018-03-24T01:33:16.409Z,95.5
2018-03-24T01:34:16.676Z,95.5
2018-03-24T01:35:16.954Z,95.5
2018-03-24T01:36:17.220Z,95.5
2018-03-24T01:37:16.482Z,95.5
2018-03-24T01:38:16.735Z,95.5
2018-03-24T01:39:16.996Z,95.5
2018-03-24T01:40:16.262Z,95.5
2018-03-24T01:41:16.312Z,95.5
2018-03-24T01:42:16.584Z,95.5
2018-03-24T01:43:16.854Z,95.4
2018-03-24T01:44:17.116Z,95.4
2018-03-24T01:45:16.370Z,95.4
2018-03-24T01:46:16.938Z,95.4
2018-03-24T01:47:17.200Z,95.5
2018-03-24T01:48:16.462Z,95.5
2018-03-24T01:49:16.725Z,95.4
2018-03-24T01:50:16.994Z,95.3
2018-03-24T01:51:17.053Z,95.3
2018-03-24T01:52:16.313Z,95.2
2018-03-24T01:53:16.577Z,95.2
2018-03-24T01:54:16.849Z,95.2
2018-03-24T01:55:17.341Z,95.2
2018-03-24T01:56:16.599Z,95.2
2018-03-24T01:57:16.868Z,95.2
2018-03-24T01:58:17.133Z,95.3
2018-03-24T01:59:16.402Z,95.3
2018-03-24T02:00:16.677Z,95.3
2018-03-24T02:01:16.758Z,95.3
2018-03-24T02:02:17.033Z,95.3
2018-03-24T02:03:16.310Z,95.3
2018-03-24T02:04:16.567Z,95.3
2018-03-24T02:05:16.848Z,95.3
2018-03-24T02:06:17.362Z,95.3
2018-03-24T02:07:16.624Z,95.3
2018-03-24T02:08:16.889Z,95.3
2018-03-24T02:09:17.144Z,95.3
2018-03-24T02:10:16.415Z,95.3
2018-03-24T02:11:16.464Z,95.3
2018-03-24T02:12:16.732Z,95.3
2018-03-24T02:13:16.988Z,95.3
2018-03-24T02:14:17.252Z,95.3
2018-03-24T02:15:16.517Z,95.3
2018-03-24T02:16:16.796Z,95.3
2018-03-24T02:17:17.056Z,95.3
2018-03-24T02:18:16.324Z,95.3
2018-03-24T02:19:16.589Z,95.3
2018-03-24T02:20:16.869Z,95.4
2018-03-24T02:21:17.074Z,95.4
2018-03-24T02:22:16.342Z,95.3
2018-03-24T02:23:16.601Z,95.4
2018-03-24T02:24:16.877Z,95.4
2018-03-24T02:25:17.143Z,95.5
2018-03-24T02:26:16.415Z,95.4
2018-03-24T02:27:16.672Z,95.3
2018-03-24T02:28:16.938Z,95.3
2018-03-24T02:29:17.202Z,95.3
2018-03-24T02:30:16.489Z,95.4
2018-03-24T02:31:16.509Z,95.3
2018-03-24T02:32:16.791Z,95.3
2018-03-24T02:33:17.077Z,95.3
2018-03-24T02:34:16.335Z,95.2
2018-03-24T02:35:16.601Z,95.2
2018-03-24T02:36:16.881Z,95.2
2018-03-24T02:37:17.155Z,95.1
2018-03-24T02:38:16.418Z,95.1
2018-03-24T02:39:16.700Z,95.1
2018-03-24T02:40:16.971Z,95.2
2018-03-24T02:41:17.017Z,95.3
2018-03-24T02:42:16.292Z,95.4
2018-03-24T02:43:16.558Z,95.4
2018-03-24T02:44:16.829Z,95.3
2018-03-24T02:45:17.105Z,95.3
2018-03-24T02:46:16.450Z,95.3
2018-03-24T02:47:16.715Z,95.3
2018-03-24T02:48:17.007Z,95.3
2018-03-24T02:49:16.282Z,95.3
2018-03-24T02:50:16.556Z,95.4
2018-03-24T02:51:16.606Z,95.4
2018-03-24T02:52:16.860Z,95.3
2018-03-24T02:53:17.423Z,95.5
2018-03-24T02:54:16.697Z,95.5
2018-03-24T02:55:16.965Z,95.7
2018-03-24T02:56:17.233Z,95.7
2018-03-24T02:57:16.500Z,95.8
2018-03-24T02:58:16.755Z,95.7
2018-03-24T02:59:17.039Z,95.7
2018-03-24T03:00:16.321Z,95.7
2018-03-24T03:01:16.370Z,95.8
2018-03-24T03:02:16.666Z,95.7
2018-03-24T03:03:16.936Z,95.8
2018-03-24T03:04:17.208Z,95.8
2018-03-24T03:05:16.475Z,95.8
2018-03-24T03:06:16.743Z,95.7
2018-03-24T03:07:17.022Z,95.7
2018-03-24T03:08:16.289Z,95.7
2018-03-24T03:09:16.547Z,95.7
2018-03-24T03:10:16.815Z,95.7
2018-03-24T03:11:16.851Z,95.7
2018-03-24T03:12:17.117Z,95.7
2018-03-24T03:13:16.413Z,95.7
2018-03-24T03:14:16.686Z,95.7
2018-03-24T03:15:16.963Z,95.7
2018-03-24T03:16:17.226Z,95.7
2018-03-24T03:17:16.482Z,95.7
2018-03-24T03:18:16.744Z,95.7
2018-03-24T03:19:17.014Z,95.7
2018-03-24T03:20:16.274Z,95.8
2018-03-24T03:21:16.306Z,95.8
2018-03-24T03:22:16.573Z,95.8
2018-03-24T03:23:16.838Z,95.8
2018-03-24T03:24:17.104Z,95.8
2018-03-24T03:25:16.362Z,95.8
2018-03-24T03:26:16.625Z,95.8
2018-03-24T03:27:16.890Z,95.8
2018-03-24T03:28:17.148Z,95.8
2018-03-24T03:29:16.414Z,95.8
2018-03-24T03:30:16.701Z,95.8
2018-03-24T03:31:16.739Z,95.9
2018-03-24T03:32:17.006Z,95.8
2018-03-24T03:33:16.277Z,95.8
2018-03-24T03:34:16.542Z,95.8
2018-03-24T03:35:16.802Z,95.8
2018-03-24T03:36:17.086Z,95.8
2018-03-24T03:37:16.354Z,95.8
2018-03-24T03:38:16.621Z,95.8
2018-03-24T03:39:16.889Z,95.8
2018-03-24T03:40:17.162Z,95.8
2018-03-24T03:41:16.458Z,95.8
2018-03-24T03:42:16.721Z,95.8
2018-03-24T03:43:16.980Z,95.8
2018-03-24T03:44:17.242Z,95.8
2018-03-24T03:45:16.496Z,95.8
2018-03-24T03:46:16.758Z,95.8
2018-03-24T03:47:17.011Z,95.9
2018-03-24T03:48:16.287Z,95.8
2018-03-24T03:49:16.561Z,95.8
2018-03-24T03:50:16.840Z,95.9
2018-03-24T03:51:16.883Z,95.9
2018-03-24T03:52:17.145Z,95.9
2018-03-24T03:53:16.408Z,95.9
2018-03-24T03:54:16.665Z,95.8
2018-03-24T03:55:16.924Z,95.8
2018-03-24T03:56:17.196Z,95.8
2018-03-24T03:57:16.458Z,95.8
2018-03-24T03:58:16.722Z,95.8
2018-03-24T03:59:16.984Z,95.8
2018-03-24T04:00:17.526Z,95.8
2018-03-24T04:01:16.306Z,95.8
2018-03-24T04:02:16.574Z,95.8
2018-03-24T04:03:16.840Z,95.8
2018-03-24T04:04:17.105Z,95.8
2018-03-24T04:05:16.368Z,95.8
2018-03-24T04:06:16.632Z,95.8
2018-03-24T04:07:16.897Z,95.8
2018-03-24T04:08:17.163Z,95.8
2018-03-24T04:09:16.429Z,95.8
2018-03-24T04:10:16.700Z,95.8
2018-03-24T04:11:16.732Z,95.8
2018-03-24T04:12:17.005Z,95.8
2018-03-24T04:13:16.282Z,95.8
2018-03-24T04:14:16.551Z,95.8
2018-03-24T04:15:16.817Z,95.7
2018-03-24T04:16:17.081Z,95.8
2018-03-24T04:17:16.342Z,95.8
2018-03-24T04:18:16.601Z,95.8
2018-03-24T04:19:16.865Z,95.8
2018-03-24T04:20:17.133Z,95.8
2018-03-24T04:21:17.164Z,95.8
2018-03-24T04:22:16.418Z,95.8
2018-03-24T04:23:16.677Z,95.8
2018-03-24T04:24:16.948Z,95.8
2018-03-24T04:25:17.214Z,95.8
2018-03-24T04:26:16.472Z,95.8
2018-03-24T04:27:16.737Z,95.8
2018-03-24T04:28:17.004Z,95.8
2018-03-24T04:29:16.265Z,95.8
2018-03-24T04:30:16.538Z,95.8
2018-03-24T04:31:16.584Z,95.9
2018-03-24T04:32:16.836Z,96.0
2018-03-24T04:33:17.105Z,95.9
2018-03-24T04:34:16.368Z,95.9
2018-03-24T04:35:16.635Z,95.9
2018-03-24T04:36:16.913Z,95.9
2018-03-24T04:37:17.178Z,95.9
2018-03-24T04:38:16.430Z,95.9
2018-03-24T04:39:16.690Z,95.9
2018-03-24T04:40:16.957Z,95.8
2018-03-24T04:41:17.015Z,95.8
2018-03-24T04:42:16.282Z,95.8
2018-03-24T04:43:16.542Z,95.8
2018-03-24T04:44:16.810Z,95.8
2018-03-24T04:45:17.244Z,95.8
2018-03-24T04:46:16.505Z,95.8
2018-03-24T04:47:16.766Z,95.8
2018-03-24T04:48:17.029Z,95.8
2018-03-24T04:49:16.290Z,95.7
2018-03-24T04:50:16.556Z,95.7
2018-03-24T04:51:16.601Z,95.8
2018-03-24T04:52:16.859Z,95.8
2018-03-24T04:53:17.128Z,95.8
2018-03-24T04:54:16.444Z,95.8
2018-03-24T04:55:16.708Z,95.9
2018-03-24T04:56:16.969Z,96.0
2018-03-24T04:57:17.236Z,96.0
2018-03-24T04:58:16.495Z,96.0
2018-03-24T04:59:16.755Z,96.0
2018-03-24T05:00:17.035Z,96.0
2018-03-24T05:01:17.068Z,96.0
2018-03-24T05:02:16.335Z,96.0
2018-03-24T05:03:16.599Z,96.0
2018-03-24T05:04:16.865Z,96.0
2018-03-24T05:05:17.135Z,96.0
2018-03-24T05:06:16.397Z,96.0
2018-03-24T05:07:16.662Z,96.0
2018-03-24T05:08:16.940Z,96.0
2018-03-24T05:09:17.203Z,96.0
2018-03-24T05:10:16.474Z,96.0
2018-03-24T05:11:16.516Z,96.0
2018-03-24T05:12:16.784Z,96.0
2018-03-24T05:13:17.048Z,96.0
2018-03-24T05:14:16.314Z,96.0
2018-03-24T05:15:16.577Z,96.0
2018-03-24T05:16:16.848Z,96.0
2018-03-24T05:17:17.164Z,96.0
2018-03-24T05:18:16.428Z,96.0
2018-03-24T05:19:16.688Z,96.0
2018-03-24T05:20:16.963Z,96.0
2018-03-24T05:21:16.993Z,95.9
2018-03-24T05:22:16.254Z,95.9
2018-03-24T05:23:16.524Z,95.9
2018-03-24T05:24:16.780Z,95.8
2018-03-24T05:25:17.034Z,95.8
2018-03-24T05:26:16.359Z,95.8
2018-03-24T05:27:16.627Z,95.8
2018-03-24T05:28:16.889Z,95.8
2018-03-24T05:29:17.156Z,95.9
2018-03-24T05:30:16.421Z,95.9
2018-03-24T05:31:16.474Z,95.9
2018-03-24T05:32:16.734Z,95.9
2018-03-24T05:33:17.000Z,95.9
2018-03-24T05:34:16.321Z,95.9
2018-03-24T05:35:16.588Z,95.9
2018-03-24T05:36:16.848Z,95.9
2018-03-24T05:37:17.417Z,95.9
2018-03-24T05:38:16.674Z,95.9
2018-03-24T05:39:16.932Z,95.9
2018-03-24T05:40:17.191Z,95.9
2018-03-24T05:41:17.244Z,95.9
2018-03-24T05:42:16.571Z,95.9
2018-03-24T05:43:16.825Z,95.8
2018-03-24T05:44:17.089Z,95.8
2018-03-24T05:45:16.357Z,95.8
2018-03-24T05:46:16.621Z,95.8
2018-03-24T05:47:16.894Z,95.8
2018-03-24T05:48:17.153Z,95.8
2018-03-24T05:49:16.428Z,95.8
2018-03-24T05:50:16.699Z,95.8
2018-03-24T05:51:16.745Z,95.8
2018-03-24T05:52:17.015Z,95.8
2018-03-24T05:53:16.287Z,95.8
2018-03-24T05:54:16.560Z,95.8
2018-03-24T05:55:16.836Z,95.8
2018-03-24T05:56:17.102Z,95.8
2018-03-24T05:57:16.380Z,95.8
2018-03-24T05:58:16.641Z,95.7
2018-03-24T05:59:16.907Z,95.7
2018-03-24T06:00:17.177Z,95.6
2018-03-24T06:01:17.238Z,95.5
2018-03-24T06:02:16.497Z,95.4
2018-03-24T06:03:16.766Z,95.3
2018-03-24T06:04:17.020Z,95.2
2018-03-24T06:05:16.297Z,95.1
2018-03-24T06:06:16.556Z,95.0
2018-03-24T06:07:16.826Z,95.0
2018-03-24T06:08:17.088Z,94.8
2018-03-24T06:09:16.348Z,94.8
2018-03-24T06:10:16.613Z,94.5
2018-03-24T06:11:16.651Z,94.5
2018-03-24T06:12:16.906Z,94.3
2018-03-24T06:13:17.174Z,94.2
2018-03-24T06:14:16.432Z,94.1
2018-03-24T06:15:16.695Z,94.0
2018-03-24T06:16:16.956Z,93.7
2018-03-24T06:17:17.225Z,93.6
2018-03-24T06:18:16.488Z,93.5
2018-03-24T06:19:16.747Z,93.0
2018-03-24T06:20:17.020Z,92.9
2018-03-24T06:21:17.048Z,92.5
2018-03-24T06:22:16.310Z,92.4
2018-03-24T06:23:16.589Z,92.3
2018-03-24T06:24:16.851Z,92.0
2018-03-24T06:25:17.129Z,92.0
2018-03-24T06:26:16.389Z,91.8
2018-03-24T06:27:16.662Z,91.8
2018-03-24T06:28:16.924Z,91.7
2018-03-24T06:29:17.202Z,91.7
2018-03-24T06:30:16.477Z,91.8
2018-03-24T06:31:16.501Z,91.9
2018-03-24T06:32:16.778Z,91.7
2018-03-24T06:33:17.060Z,91.6
2018-03-24T06:34:16.326Z,91.5
2018-03-24T06:35:16.604Z,91.2
2018-03-24T06:36:16.883Z,91.7
2018-03-24T06:37:17.141Z,92.0
2018-03-24T06:38:16.405Z,92.2
2018-03-24T06:39:16.678Z,92.3
2018-03-24T06:40:16.957Z,92.0
2018-03-24T06:41:16.992Z,91.1
2018-03-24T06:42:16.261Z,91.0
2018-03-24T06:43:16.534Z,90.4
2018-03-24T06:44:16.805Z,89.9
2018-03-24T06:45:17.064Z,90.0
2018-03-24T06:46:16.326Z,89.5
2018-03-24T06:47:16.601Z,89.5
2018-03-24T06:48:16.853Z,89.5
2018-03-24T06:49:17.116Z,89.2
2018-03-24T06:50:16.382Z,89.2
2018-03-24T06:51:16.433Z,89.0
2018-03-24T06:52:16.690Z,89.8
2018-03-24T06:53:16.970Z,89.3
2018-03-24T06:54:17.244Z,89.1
2018-03-24T06:55:16.507Z,89.5
2018-03-24T06:56:16.769Z,89.5
2018-03-24T06:57:17.032Z,89.3
2018-03-24T06:58:16.299Z,89.5
2018-03-24T06:59:16.572Z,89.5
2018-03-24T07:00:16.845Z,89.7
2018-03-24T07:01:16.888Z,90.3
2018-03-24T07:02:17.159Z,90.5
2018-03-24T07:03:16.427Z,90.4
2018-03-24T07:04:16.694Z,90.2
2018-03-24T07:05:16.957Z,90.5
2018-03-24T07:06:17.213Z,90.3
2018-03-24T07:07:16.469Z,90.2
2018-03-24T07:08:16.730Z,90.7
2018-03-24T07:09:16.998Z,91.3
2018-03-24T07:10:16.267Z,91.7
2018-03-24T07:11:16.313Z,92.0
2018-03-24T07:12:16.580Z,91.7
2018-03-24T07:13:16.841Z,91.4
2018-03-24T07:14:17.403Z,91.0
2018-03-24T07:15:16.678Z,91.7
2018-03-24T07:16:16.948Z,91.7
2018-03-24T07:17:17.480Z,91.7
2018-03-24T07:18:16.742Z,91.9
2018-03-24T07:19:17.004Z,91.8
2018-03-24T07:20:16.293Z,91.5
2018-03-24T07:21:16.428Z,91.3
2018-03-24T07:22:16.695Z,91.2
2018-03-24T07:23:16.961Z,91.2
2018-03-24T07:24:17.234Z,91.2
2018-03-24T07:25:16.499Z,91.0
2018-03-24T07:26:16.760Z,91.4
2018-03-24T07:27:17.020Z,91.8
2018-03-24T07:28:16.285Z,91.3
2018-03-24T07:29:16.554Z,91.2
2018-03-24T07:30:16.824Z,91.2
2018-03-24T07:31:16.869Z,91.7
2018-03-24T07:32:17.140Z,92.0
2018-03-24T07:33:16.406Z,91.5
2018-03-24T07:34:16.668Z,91.2
2018-03-24T07:35:16.930Z,90.9
2018-03-24T07:36:17.190Z,90.6
2018-03-24T07:37:16.450Z,90.5
2018-03-24T07:38:16.720Z,90.5
2018-03-24T07:39:16.975Z,90.2
2018-03-24T07:40:17.531Z,90.2
2018-03-24T07:41:16.293Z,89.8
2018-03-24T07:42:16.566Z,90.0
2018-03-24T07:43:16.837Z,89.8
2018-03-24T07:44:17.108Z,89.8
2018-03-24T07:45:16.386Z,90.2
2018-03-24T07:46:16.960Z,90.0
2018-03-24T07:47:17.224Z,89.5
2018-03-24T07:48:16.482Z,89.9
2018-03-24T07:49:16.753Z,90.2
2018-03-24T07:50:17.020Z,89.5
2018-03-24T07:51:17.154Z,89.2
2018-03-24T07:52:16.426Z,88.8
2018-03-24T07:53:16.703Z,89.2
2018-03-24T07:54:16.976Z,88.8
2018-03-24T07:55:17.242Z,88.2
2018-03-24T07:56:16.500Z,87.3
2018-03-24T07:57:16.769Z,87.3
2018-03-24T07:58:17.037Z,87.5
2018-03-24T07:59:16.299Z,87.0
2018-03-24T08:00:16.557Z,87.2
2018-03-24T08:01:16.606Z,87.4
2018-03-24T08:02:16.873Z,87.4
2018-03-24T08:03:17.146Z,88.1
2018-03-24T08:04:16.558Z,87.9
2018-03-24T08:05:16.877Z,87.7
2018-03-24T08:06:17.429Z,88.3
2018-03-24T08:07:16.690Z,88.8
2018-03-24T08:08:16.953Z,88.2
2018-03-24T08:09:17.224Z,87.7
2018-03-24T08:10:16.494Z,87.3
2018-03-24T08:11:16.542Z,86.6
2018-03-24T08:12:16.825Z,86.2
2018-03-24T08:13:17.097Z,85.6
2018-03-24T08:14:16.360Z,85.5
2018-03-24T08:15:16.627Z,85.8
2018-03-24T08:16:16.888Z,86.5
2018-03-24T08:17:17.154Z,85.0
2018-03-24T08:18:16.416Z,83.4
2018-03-24T08:19:16.677Z,84.5
2018-03-24T08:20:16.952Z,83.8
2018-03-24T08:21:17.002Z,83.3
2018-03-24T08:22:16.263Z,84.0
2018-03-24T08:23:16.525Z,84.1
2018-03-24T08:24:16.786Z,82.2
2018-03-24T08:25:17.050Z,82.4
2018-03-24T08:26:16.313Z,80.2
2018-03-24T08:27:17.233Z,81.4
2018-03-24T08:28:16.505Z,80.7
2018-03-24T08:29:16.780Z,79.3
2018-03-24T08:30:17.068Z,80.9
2018-03-24T08:31:17.108Z,79.2
2018-03-24T08:32:16.374Z,77.5
2018-03-24T08:33:16.635Z,77.0
2018-03-24T08:34:16.911Z,76.7
2018-03-24T08:35:17.172Z,77.2
2018-03-24T08:36:16.431Z,76.8
2018-03-24T08:37:16.696Z,77.2
2018-03-24T08:38:16.959Z,76.8
2018-03-24T08:39:17.230Z,77.8
2018-03-24T08:40:16.504Z,76.3
2018-03-24T08:41:16.547Z,78.8
2018-03-24T08:42:16.813Z,77.2
2018-03-24T08:43:17.097Z,77.8
2018-03-24T08:44:16.370Z,77.3
2018-03-24T08:45:16.644Z,78.6
2018-03-24T08:46:16.903Z,77.8
2018-03-24T08:47:17.491Z,76.8
2018-03-24T08:48:16.754Z,76.7
2018-03-24T08:49:17.016Z,74.2
2018-03-24T08:50:16.287Z,77.0
2018-03-24T08:51:16.334Z,78.5
2018-03-24T08:52:16.599Z,75.8
2018-03-24T08:53:16.865Z,76.3
2018-03-24T08:54:17.146Z,76.3
2018-03-24T08:55:16.408Z,73.6
2018-03-24T08:56:16.666Z,74.0
2018-03-24T08:57:16.937Z,72.1
2018-03-24T08:58:17.210Z,71.1
2018-03-24T08:59:16.470Z,70.6
2018-03-24T09:00:16.749Z,72.3
2018-03-24T09:01:16.795Z,70.9
2018-03-24T09:02:17.063Z,70.5
2018-03-24T09:03:16.345Z,68.8
2018-03-24T09:04:16.607Z,68.1
2018-03-24T09:05:17.008Z,68.5
2018-03-24T09:06:16.272Z,66.8
2018-03-24T09:07:16.543Z,66.8
2018-03-24T09:08:16.806Z,65.1
2018-03-24T09:09:17.067Z,65.0
2018-03-24T09:10:16.337Z,63.9
2018-03-24T09:11:16.388Z,64.0
2018-03-24T09:12:16.645Z,64.8
2018-03-24T09:13:16.902Z,63.4
2018-03-24T09:14:17.173Z,62.4
2018-03-24T09:15:16.454Z,61.9
2018-03-24T09:16:16.717Z,62.7
2018-03-24T09:17:16.973Z,62.1
2018-03-24T09:18:17.245Z,61.0
2018-03-24T09:19:16.512Z,61.0
2018-03-24T09:20:16.788Z,61.0
2018-03-24T09:21:16.823Z,60.7
2018-03-24T09:22:17.161Z,62.2
2018-03-24T09:23:16.428Z,60.3
2018-03-24T09:24:16.685Z,59.1
2018-03-24T09:25:16.954Z,57.9
2018-03-24T09:26:17.217Z,59.6
2018-03-24T09:27:16.475Z,59.0
2018-03-24T09:28:16.737Z,59.2
2018-03-24T09:29:16.995Z,59.7
2018-03-24T09:30:16.265Z,59.9
2018-03-24T09:31:16.299Z,58.0
2018-03-24T09:32:16.567Z,57.0
2018-03-24T09:33:16.829Z,54.4
2018-03-24T09:34:17.100Z,54.7
2018-03-24T09:35:16.361Z,54.5
2018-03-24T09:36:16.637Z,56.0
2018-03-24T09:37:16.899Z,53.4
2018-03-24T09:38:17.176Z,53.7
2018-03-24T09:39:16.446Z,56.0
2018-03-24T09:40:16.721Z,53.1
2018-03-24T09:41:16.858Z,53.0
2018-03-24T09:42:17.119Z,55.7
2018-03-24T09:43:16.370Z,54.0
2018-03-24T09:44:16.632Z,52.9
2018-03-24T09:45:16.903Z,53.4
2018-03-24T09:46:17.218Z,50.8
2018-03-24T09:47:16.482Z,50.9
2018-03-24T09:48:16.794Z,50.7
2018-03-24T09:49:17.049Z,47.8
2018-03-24T09:50:16.317Z,47.4
2018-03-24T09:51:16.366Z,46.1
2018-03-24T09:52:16.637Z,48.3
2018-03-24T09:53:16.901Z,46.6
2018-03-24T09:54:17.209Z,48.0
2018-03-24T09:55:16.481Z,48.4
2018-03-24T09:56:16.746Z,48.2
2018-03-24T09:57:17.010Z,48.5
2018-03-24T09:58:16.277Z,47.0
2018-03-24T09:59:16.653Z,46.2
2018-03-24T10:00:16.934Z,47.1
2018-03-24T10:01:16.993Z,44.6
2018-03-24T10:02:16.263Z,44.0
2018-03-24T10:03:16.529Z,44.0
2018-03-24T10:04:16.791Z,43.5
2018-03-24T10:05:17.093Z,43.5
2018-03-24T10:06:16.363Z,44.5
2018-03-24T10:07:16.639Z,43.5
2018-03-24T10:08:16.896Z,43.9
2018-03-24T10:09:17.172Z,43.8
2018-03-24T10:10:16.433Z,42.3
2018-03-24T10:11:16.497Z,41.0
2018-03-24T10:12:16.760Z,41.4
2018-03-24T10:13:17.023Z,40.1
2018-03-24T10:14:16.289Z,39.5
2018-03-24T10:15:16.548Z,38.0
2018-03-24T10:16:16.813Z,37.8
2018-03-24T10:17:17.082Z,37.7
2018-03-24T10:18:16.342Z,36.6
2018-03-24T10:19:16.597Z,38.0
2018-03-24T10:20:16.865Z,37.1
2018-03-24T10:21:16.924Z,35.8
2018-03-24T10:22:17.192Z,36.1
2018-03-24T10:23:16.464Z,34.9
2018-03-24T10:24:16.728Z,34.6
2018-03-24T10:25:17.013Z,35.5
2018-03-24T10:26:16.274Z,35.9
2018-03-24T10:27:16.538Z,35.8
2018-03-24T10:28:16.807Z,36.0
2018-03-24T10:29:17.069Z,35.4
2018-03-24T10:30:16.348Z,35.5
2018-03-24T10:31:16.385Z,34.6
2018-03-24T10:32:16.652Z,34.0
2018-03-24T10:33:16.923Z,33.7
2018-03-24T10:34:17.187Z,33.0
2018-03-24T10:35:16.454Z,32.9
2018-03-24T10:36:16.720Z,33.1
2018-03-24T10:37:16.983Z,34.6
2018-03-24T10:38:17.255Z,35.0
2018-03-24T10:39:16.510Z,35.4
2018-03-24T10:40:16.781Z,34.9
2018-03-24T10:41:16.838Z,34.8
2018-03-24T10:42:17.108Z,34.9
2018-03-24T10:43:16.365Z,35.2
2018-03-24T10:44:16.629Z,35.1
2018-03-24T10:45:16.901Z,35.2
2018-03-24T10:46:17.172Z,35.5
2018-03-24T10:47:16.429Z,35.1
2018-03-24T10:48:16.696Z,34.0
2018-03-24T10:49:16.978Z,33.2
2018-03-24T10:50:17.244Z,33.0
2018-03-24T10:51:16.304Z,32.5
2018-03-24T10:52:16.560Z,32.2
2018-03-24T10:53:16.821Z,32.9
2018-03-24T10:54:17.078Z,32.5
2018-03-24T10:55:16.362Z,32.6
2018-03-24T10:56:16.628Z,32.0
2018-03-24T10:57:16.895Z,33.5
2018-03-24T10:58:17.158Z,33.4
2018-03-24T10:59:16.424Z,33.4
2018-03-24T11:00:16.703Z,33.5
2018-03-24T11:01:16.741Z,33.5
2018-03-24T11:02:16.998Z,33.1
2018-03-24T11:03:16.258Z,33.9
2018-03-24T11:04:16.522Z,35.0
2018-03-24T11:05:16.802Z,35.2
2018-03-24T11:06:17.117Z,35.5
2018-03-24T11:07:16.372Z,35.8
2018-03-24T11:08:16.640Z,35.9
2018-03-24T11:09:16.913Z,36.2
2018-03-24T11:10:17.176Z,36.1
2018-03-24T11:11:17.346Z,36.1
2018-03-24T11:12:16.611Z,36.5
2018-03-24T11:13:16.876Z,37.1
2018-03-24T11:14:17.159Z,37.2
2018-03-24T11:15:16.420Z,37.2
2018-03-24T11:16:16.682Z,36.6
2018-03-24T11:17:16.948Z,35.9
2018-03-24T11:18:17.212Z,35.1
2018-03-24T11:19:16.477Z,35.0
2018-03-24T11:20:16.752Z,35.9
2018-03-24T11:21:16.804Z,35.2
2018-03-24T11:22:17.073Z,35.2
2018-03-24T11:23:16.340Z,35.5
2018-03-24T11:24:16.607Z,35.8
2018-03-24T11:25:16.865Z,36.5
2018-03-24T11:26:17.187Z,36.2
2018-03-24T11:27:16.453Z,36.5
2018-03-24T11:28:16.719Z,35.1
2018-03-24T11:29:16.993Z,35.8
2018-03-24T11:30:16.258Z,35.4
2018-03-24T11:31:16.348Z,35.1
2018-03-24T11:32:16.612Z,34.6
2018-03-24T11:33:16.865Z,35.6
2018-03-24T11:34:17.144Z,35.1
2018-03-24T11:35:16.409Z,34.6
2018-03-24T11:36:16.669Z,35.5
2018-03-24T11:37:16.942Z,35.0
2018-03-24T11:38:17.215Z,35.4
2018-03-24T11:39:16.477Z,35.5
2018-03-24T11:40:16.795Z,36.1
2018-03-24T11:41:17.105Z,36.5
2018-03-24T11:42:16.372Z,36.2
2018-03-24T11:43:16.634Z,36.0
2018-03-24T11:44:16.905Z,35.3
2018-03-24T11:45:17.168Z,35.8
2018-03-24T11:46:16.427Z,36.4
2018-03-24T11:47:16.707Z,35.7
2018-03-24T11:48:16.973Z,35.4
2018-03-24T11:49:17.233Z,35.2
2018-03-24T11:50:16.616Z,36.4
2018-03-24T11:51:16.550Z,35.5
2018-03-24T11:52:16.816Z,35.3
2018-03-24T11:53:17.080Z,35.8
2018-03-24T11:54:16.345Z,35.8
2018-03-24T11:55:16.613Z,36.0
2018-03-24T11:56:16.994Z,36.1
2018-03-24T11:57:16.268Z,34.8
2018-03-24T11:58:16.528Z,35.4
2018-03-24T11:59:16.786Z,35.5
2018-03-24T12:00:17.067Z,35.5
2018-03-24T12:01:17.120Z,35.4
2018-03-24T12:02:16.392Z,35.4
2018-03-24T12:03:16.650Z,35.8
2018-03-24T12:04:16.910Z,36.2
2018-03-24T12:05:17.171Z,36.3
2018-03-24T12:06:16.441Z,36.0
2018-03-24T12:07:16.709Z,37.0
2018-03-24T12:08:17.099Z,36.7
2018-03-24T12:09:16.381Z,36.8
2018-03-24T12:10:16.654Z,36.6
2018-03-24T12:11:16.688Z,36.5
2018-03-24T12:12:16.950Z,36.9
2018-03-24T12:13:17.232Z,37.5
2018-03-24T12:14:16.499Z,37.5
2018-03-24T12:15:16.764Z,37.5
2018-03-24T12:16:17.020Z,38.0
2018-03-24T12:17:16.277Z,37.8
2018-03-24T12:18:16.579Z,38.0
2018-03-24T12:19:16.847Z,37.8
2018-03-24T12:20:17.121Z,38.4
2018-03-24T12:21:17.161Z,38.3
2018-03-24T12:22:16.524Z,38.5
2018-03-24T12:23:16.788Z,38.2
2018-03-24T12:24:17.055Z,38.5
2018-03-24T12:25:16.325Z,38.5
2018-03-24T12:26:16.588Z,38.9
2018-03-24T12:27:16.847Z,39.1
2018-03-24T12:28:17.101Z,38.8
2018-03-24T12:29:16.372Z,39.1
2018-03-24T12:30:16.648Z,38.4
2018-03-24T12:31:16.700Z,39.0
2018-03-24T12:32:16.960Z,38.4
2018-03-24T12:33:17.226Z,38.0
2018-03-24T12:34:16.492Z,37.9
2018-03-24T12:35:16.751Z,37.6
2018-03-24T12:36:17.016Z,37.8
2018-03-24T12:37:16.274Z,37.9
2018-03-24T12:38:16.536Z,37.5
2018-03-24T12:39:16.798Z,37.6
2018-03-24T12:40:17.072Z,37.5
2018-03-24T12:41:17.127Z,37.1
2018-03-24T12:42:16.382Z,36.6
2018-03-24T12:43:16.637Z,37.0
2018-03-24T12:44:16.912Z,37.0
2018-03-24T12:45:17.168Z,36.6
2018-03-24T12:46:16.508Z,36.4
2018-03-24T12:47:16.782Z,37.0
2018-03-24T12:48:17.042Z,36.8
2018-03-24T12:49:16.312Z,36.4
2018-03-24T12:50:16.591Z,36.2
2018-03-24T12:51:16.632Z,35.6
2018-03-24T12:52:16.893Z,35.4
2018-03-24T12:53:17.157Z,35.5
2018-03-24T12:54:16.418Z,34.5
2018-03-24T12:55:16.683Z,34.9
2018-03-24T12:56:16.943Z,35.0
2018-03-24T12:57:17.214Z,35.1
2018-03-24T12:58:16.478Z,35.2
2018-03-24T12:59:16.733Z,35.0
2018-03-24T13:00:17.007Z,35.5
2018-03-24T13:01:17.063Z,35.7
2018-03-24T13:02:16.325Z,35.7
2018-03-24T13:03:16.589Z,35.3
2018-03-24T13:04:16.850Z,35.4
2018-03-24T13:05:17.110Z,35.5
2018-03-24T13:06:16.372Z,35.3
2018-03-24T13:07:16.633Z,35.0
2018-03-24T13:08:16.901Z,35.2
2018-03-24T13:09:17.170Z,35.2
2018-03-24T13:10:16.489Z,35.6
2018-03-24T13:11:16.519Z,35.5
2018-03-24T13:12:16.774Z,35.1
2018-03-24T13:13:17.035Z,35.5
2018-03-24T13:14:16.308Z,35.0
2018-03-24T13:15:16.576Z,34.8
2018-03-24T13:16:16.845Z,34.8
2018-03-24T13:17:17.112Z,34.8
2018-03-24T13:18:16.382Z,35.0